createdAt,value
2022-09-06T00:02:43.880Z,23.54
2022-09-06T00:07:45.577Z,23.49
2022-09-06T00:12:47.786Z,23.46
2022-09-06T00:17:49.429Z,23.42
2022-09-06T00:22:50.967Z,23.38
2022-09-06T00:28:02.180Z,23.34
2022-09-06T00:33:03.940Z,23.32
2022-09-06T00:38:05.482Z,23.28
2022-09-06T00:43:07.389Z,23.23
2022-09-06T00:48:09.686Z,23.16
2022-09-06T00:53:11.523Z,23.13
2022-09-06T00:58:13.499Z,23.09
2022-09-06T01:03:15.231Z,23.03
2022-09-06T01:08:28.538Z,22.97
2022-09-06T01:13:49.424Z,22.90
2022-09-06T01:19:04.178Z,22.85
2022-09-06T01:24:25.655Z,22.82
2022-09-06T01:29:46.173Z,22.81
2022-09-06T01:35:16.290Z,22.78
2022-09-06T01:40:17.902Z,22.77
2022-09-06T01:45:45.398Z,22.73
2022-09-06T01:51:04.650Z,22.69
2022-09-06T01:56:38.274Z,22.65
2022-09-06T02:02:07.271Z,22.61
2022-09-06T02:07:16.455Z,22.59
2022-09-06T02:12:20.496Z,22.59
2022-09-06T02:17:27.998Z,22.56
2022-09-06T02:22:33.139Z,22.52
2022-09-06T02:27:35.417Z,22.47
2022-09-06T02:32:54.040Z,22.41
2022-09-06T02:37:56.372Z,22.39
2022-09-06T02:42:57.983Z,22.34
2022-09-06T02:47:59.578Z,22.30
2022-09-06T02:53:03.439Z,22.24
2022-09-06T02:58:07.031Z,22.21
2022-09-06T03:03:08.617Z,22.17
2022-09-06T03:08:10.193Z,22.16
2022-09-06T03:13:11.818Z,22.12
2022-09-06T03:18:14.810Z,22.10
2022-09-06T03:23:17.642Z,22.08
2022-09-06T03:28:20.000Z,22.06
2022-09-06T03:33:21.762Z,22.04
2022-09-06T03:38:24.962Z,22.00
2022-09-06T03:43:28.295Z,21.96
2022-09-06T03:48:30.046Z,21.91
2022-09-06T03:53:31.658Z,21.86
2022-09-06T03:58:33.460Z,21.80
2022-09-06T04:03:36.173Z,21.78
2022-09-06T04:08:39.286Z,21.73
2022-09-06T04:13:41.617Z,21.69
2022-09-06T04:18:43.240Z,21.66
2022-09-06T04:23:44.800Z,21.66
2022-09-06T04:28:46.550Z,21.62
2022-09-06T04:33:48.110Z,21.60
2022-09-06T04:38:49.709Z,21.59
2022-09-06T04:43:51.300Z,21.56
2022-09-06T04:48:54.199Z,21.52
2022-09-06T04:53:56.051Z,21.51
2022-09-06T04:58:57.610Z,21.50
2022-09-06T05:03:59.814Z,21.52
2022-09-06T05:09:01.345Z,21.52
2022-09-06T05:14:03.080Z,21.53
2022-09-06T05:19:04.590Z,21.53
2022-09-06T05:24:06.243Z,21.52
2022-09-06T05:29:07.766Z,21.54
2022-09-06T05:34:10.485Z,21.57
2022-09-06T05:39:12.046Z,21.59
2022-09-06T05:44:14.407Z,21.62
2022-09-06T05:49:16.052Z,21.66
2022-09-06T05:54:17.797Z,21.68
2022-09-06T05:59:19.355Z,21.73
2022-09-06T06:04:21.612Z,21.77
2022-09-06T06:09:23.166Z,21.79
2022-09-06T06:14:24.821Z,21.82
2022-09-06T06:19:26.726Z,21.87
2022-09-06T06:24:28.302Z,21.93
2022-09-06T06:29:29.893Z,22.02
2022-09-06T06:34:31.411Z,22.11
2022-09-06T06:39:33.221Z,22.21
2022-09-06T06:44:34.823Z,22.31
2022-09-06T06:49:36.351Z,22.42
2022-09-06T06:54:37.962Z,22.50
2022-09-06T06:59:39.875Z,22.57
2022-09-06T07:04:41.778Z,22.65
2022-09-06T07:15:05.612Z,22.78
2022-09-06T07:20:15.364Z,22.83
2022-09-06T07:25:21.256Z,22.85
2022-09-06T07:30:23.168Z,22.91
2022-09-06T07:35:26.489Z,23.03
2022-09-06T07:40:30.437Z,23.05
2022-09-06T07:45:35.587Z,23.07
2022-09-06T07:50:54.758Z,23.13
2022-09-06T07:56:01.268Z,23.17
2022-09-06T08:01:30.672Z,23.26
2022-09-06T08:11:56.827Z,23.46
2022-09-06T08:16:58.399Z,23.55
2022-09-06T08:22:00.143Z,23.62
2022-09-06T08:27:02.809Z,23.70
2022-09-06T08:32:04.405Z,23.75
2022-09-06T08:37:05.953Z,23.82
2022-09-06T08:42:08.338Z,23.88
2022-09-06T08:47:17.672Z,23.98
2022-09-06T08:53:17.884Z,24.12
2022-09-06T08:58:39.046Z,24.26
2022-09-06T09:03:42.895Z,24.40
2022-09-06T09:08:53.751Z,24.56
2022-09-06T09:14:23.322Z,24.70
2022-09-06T09:19:24.946Z,24.85
2022-09-06T09:24:26.621Z,25.00
2022-09-06T09:29:31.161Z,25.10
2022-09-06T09:34:37.715Z,25.19
2022-09-06T09:39:40.431Z,25.32
2022-09-06T09:44:44.218Z,25.47
2022-09-06T09:49:45.753Z,25.57
2022-09-06T09:54:47.776Z,25.69
2022-09-06T09:59:57.266Z,25.83
2022-09-06T10:05:17.046Z,25.97
2022-09-06T10:10:31.282Z,26.07
2022-09-06T10:15:39.358Z,26.23
2022-09-06T10:20:48.379Z,26.37
2022-09-06T10:26:17.042Z,26.52
2022-09-06T10:31:45.508Z,26.60
2022-09-06T10:37:04.854Z,26.65
2022-09-06T10:42:31.504Z,26.75
2022-09-06T10:47:49.351Z,26.84
2022-09-06T10:52:53.118Z,26.98
2022-09-06T10:58:17.677Z,27.08
2022-09-06T11:09:16.580Z,27.27
2022-09-06T11:14:21.013Z,27.36
2022-09-06T11:19:31.189Z,27.40
2022-09-06T11:24:40.980Z,27.50
2022-09-06T11:29:45.830Z,27.62
2022-09-06T11:34:56.157Z,27.69
2022-09-06T11:45:47.706Z,27.85
2022-09-06T11:50:58.761Z,27.94
2022-09-06T11:56:00.310Z,28.01
2022-09-06T12:01:13.956Z,28.12
2022-09-06T12:06:21.060Z,28.13
2022-09-06T12:11:44.031Z,28.19
2022-09-06T12:16:57.582Z,28.26
2022-09-06T12:21:59.183Z,28.39
2022-09-06T12:27:15.755Z,28.48
2022-09-06T12:32:25.698Z,28.62
2022-09-06T12:37:37.225Z,28.71
2022-09-06T12:42:38.998Z,28.85
2022-09-06T12:47:40.572Z,28.92
2022-09-06T12:52:54.319Z,28.97
2022-09-06T12:57:58.090Z,29.05
2022-09-06T13:03:26.885Z,29.16
2022-09-06T13:08:45.521Z,29.26
2022-09-06T13:13:49.211Z,29.31
2022-09-06T13:18:51.016Z,29.45
2022-09-06T13:23:52.773Z,29.57
2022-09-06T13:28:54.349Z,29.68
2022-09-06T13:33:59.603Z,29.75
2022-09-06T13:39:03.752Z,29.77
2022-09-06T13:44:17.337Z,29.86
2022-09-06T13:49:18.969Z,29.86
2022-09-06T13:54:22.614Z,29.85
2022-09-06T13:59:25.180Z,29.80
2022-09-06T14:04:26.943Z,29.76
2022-09-06T14:09:29.413Z,29.73
2022-09-06T14:14:31.013Z,29.78
2022-09-06T14:19:32.712Z,29.77
2022-09-06T14:24:34.237Z,29.78
2022-09-06T14:29:36.033Z,29.89
2022-09-06T14:34:37.615Z,29.97
2022-09-06T14:39:39.251Z,30.07
2022-09-06T14:44:40.915Z,30.19
2022-09-06T14:49:42.654Z,30.26
2022-09-06T14:54:44.249Z,30.24
2022-09-06T14:59:45.899Z,30.19
2022-09-06T15:04:47.559Z,30.14
2022-09-06T15:09:50.991Z,30.10
2022-09-06T15:14:52.524Z,30.16
2022-09-06T15:19:54.335Z,30.33
2022-09-06T15:24:55.874Z,30.49
2022-09-06T15:29:57.401Z,30.56
2022-09-06T15:35:04.510Z,30.65
2022-09-06T15:40:06.873Z,30.72
2022-09-06T15:45:09.366Z,30.83
2022-09-06T15:50:10.967Z,30.96
2022-09-06T15:55:31.341Z,30.98
2022-09-06T16:00:33.760Z,30.96
2022-09-06T16:10:57.270Z,30.94
2022-09-06T16:16:01.033Z,30.87
2022-09-06T16:21:12.187Z,30.83
2022-09-06T16:26:15.926Z,30.76
2022-09-06T16:31:21.664Z,30.67
2022-09-06T16:36:24.282Z,30.58
2022-09-06T16:41:40.323Z,30.52
2022-09-06T16:46:43.781Z,30.53
2022-09-06T16:51:46.771Z,30.62
2022-09-06T16:56:48.586Z,30.70
2022-09-06T17:01:51.513Z,30.75
2022-09-06T17:06:53.340Z,30.82
2022-09-06T17:11:55.142Z,30.86
2022-09-06T17:17:05.614Z,30.86
2022-09-06T17:22:10.067Z,30.77
2022-09-06T17:27:11.591Z,30.64
2022-09-06T17:32:13.193Z,30.51
2022-09-06T17:37:15.267Z,30.35
2022-09-06T17:42:16.915Z,30.19
2022-09-06T17:47:18.529Z,30.01
2022-09-06T17:52:20.112Z,29.84
2022-09-06T17:57:21.816Z,29.67
2022-09-06T18:02:23.544Z,29.49
2022-09-06T18:07:25.101Z,29.28
2022-09-06T18:12:29.043Z,29.07
2022-09-06T18:17:30.743Z,28.86
2022-09-06T18:22:32.994Z,28.69
2022-09-06T18:27:34.562Z,28.56
2022-09-06T18:32:36.109Z,28.43
2022-09-06T18:37:37.890Z,28.33
2022-09-06T18:42:43.050Z,28.22
2022-09-06T18:47:44.830Z,28.11
2022-09-06T18:52:46.387Z,27.99
2022-09-06T18:57:48.011Z,27.90
2022-09-06T19:02:49.599Z,27.80
2022-09-06T19:07:51.246Z,27.70
2022-09-06T19:12:53.476Z,27.61
2022-09-06T19:17:56.719Z,27.52
2022-09-06T19:22:58.256Z,27.42
2022-09-06T19:27:59.853Z,27.33
2022-09-06T19:33:01.418Z,27.25
2022-09-06T19:38:03.268Z,27.17
2022-09-06T19:43:05.004Z,27.09
2022-09-06T19:48:08.297Z,26.97
2022-09-06T19:53:09.896Z,26.82
2022-09-06T19:58:11.480Z,26.70
2022-09-06T20:03:13.210Z,26.59
2022-09-06T20:08:15.135Z,26.47
2022-09-06T20:13:16.692Z,26.37
2022-09-06T20:18:18.770Z,26.32
2022-09-06T20:23:20.523Z,26.20
2022-09-06T20:28:22.099Z,26.11
2022-09-06T20:33:23.783Z,26.04
2022-09-06T20:38:26.449Z,25.96
2022-09-06T20:43:28.739Z,25.85
2022-09-06T20:48:34.796Z,25.78
2022-09-06T20:53:40.851Z,25.69
2022-09-06T20:58:47.220Z,25.63
2022-09-06T21:03:51.609Z,25.57
2022-09-06T21:08:53.791Z,25.52
2022-09-06T21:13:57.160Z,25.46
2022-09-06T21:19:01.362Z,25.40
2022-09-06T21:24:05.169Z,25.36
2022-09-06T21:29:06.712Z,25.34
2022-09-06T21:34:16.927Z,25.28
2022-09-06T21:39:18.983Z,25.21
2022-09-06T21:44:20.687Z,25.10
2022-09-06T21:49:22.225Z,25.00
2022-09-06T21:54:23.794Z,24.95
2022-09-06T21:59:25.343Z,24.88
2022-09-06T22:04:26.928Z,24.80
2022-09-06T22:09:28.503Z,24.76
2022-09-06T22:14:30.131Z,24.72
2022-09-06T22:19:31.896Z,24.70
2022-09-06T22:24:33.482Z,24.67
2022-09-06T22:29:35.223Z,24.63
2022-09-06T22:34:37.004Z,24.59
2022-09-06T22:39:38.718Z,24.53
2022-09-06T22:44:43.219Z,24.49
2022-09-06T22:49:44.802Z,24.36
2022-09-06T22:54:46.502Z,24.28
2022-09-06T22:59:48.572Z,24.22
2022-09-06T23:04:51.389Z,24.20
2022-09-06T23:09:52.996Z,24.19
2022-09-06T23:14:54.591Z,24.16
2022-09-06T23:19:56.192Z,24.12
2022-09-06T23:24:57.799Z,24.11
2022-09-06T23:30:00.885Z,24.11
2022-09-06T23:35:02.559Z,24.10
2022-09-06T23:40:08.809Z,24.09
2022-09-06T23:45:10.900Z,24.09
2022-09-06T23:50:12.557Z,24.04
2022-09-06T23:55:14.153Z,23.97
